createdAt,value
2023-11-24T00:00:32.629Z,88.85
2023-11-24T00:03:19.775Z,88.66
2023-11-24T00:05:47.501Z,88.53
2023-11-24T00:08:14.214Z,88.54
2023-11-24T00:10:40.901Z,88.31
2023-11-24T00:13:07.686Z,88.55
2023-11-24T00:15:34.508Z,88.33
2023-11-24T00:18:02.475Z,88.15
2023-11-24T00:20:30.888Z,87.99
2023-11-24T00:22:57.784Z,87.91
2023-11-24T00:25:25.023Z,88.33
2023-11-24T00:27:52.779Z,87.79
2023-11-24T00:30:20.787Z,87.71
2023-11-24T00:32:48.202Z,87.80
2023-11-24T00:35:16.002Z,87.76
2023-11-24T00:37:43.049Z,87.43
2023-11-24T00:40:15.102Z,87.49
2023-11-24T00:42:42.618Z,87.40
2023-11-24T00:45:11.189Z,87.38
2023-11-24T00:47:38.080Z,87.26
2023-11-24T00:50:07.078Z,87.47
2023-11-24T00:52:34.195Z,87.11
2023-11-24T00:55:01.207Z,87.09
2023-11-24T00:57:28.283Z,87.25
2023-11-24T00:59:55.152Z,87.18
2023-11-24T01:02:21.937Z,87.28
2023-11-24T01:04:49.407Z,87.41
2023-11-24T01:07:16.479Z,87.14
2023-11-24T01:09:43.430Z,86.88
2023-11-24T01:12:11.044Z,86.89
2023-11-24T01:14:37.733Z,86.89
2023-11-24T01:17:04.598Z,86.89
2023-11-24T01:19:31.271Z,86.97
2023-11-24T01:21:58.257Z,87.17
2023-11-24T01:24:25.141Z,87.15
2023-11-24T01:26:52.294Z,87.10
2023-11-24T01:29:19.663Z,86.97
2023-11-24T01:31:47.208Z,87.03
2023-11-24T01:34:15.960Z,87.17
2023-11-24T01:36:44.064Z,87.16
2023-11-24T01:39:11.622Z,87.06
2023-11-24T01:41:38.559Z,86.99
2023-11-24T01:44:07.384Z,87.23
2023-11-24T01:46:34.891Z,85.37
2023-11-24T01:49:02.764Z,84.46
2023-11-24T01:51:31.546Z,84.85
2023-11-24T01:53:58.756Z,85.24
2023-11-24T01:56:25.935Z,85.74
2023-11-24T01:58:54.706Z,86.05
2023-11-24T02:01:23.479Z,86.66
2023-11-24T02:03:50.251Z,86.63
2023-11-24T02:06:17.194Z,86.98
2023-11-24T02:08:44.602Z,87.24
2023-11-24T02:11:11.581Z,87.27
2023-11-24T02:13:38.669Z,87.58
2023-11-24T02:16:05.809Z,88.23
2023-11-24T02:18:32.940Z,88.52
2023-11-24T02:21:02.049Z,88.60
2023-11-24T02:23:29.166Z,88.85
2023-11-24T02:25:55.956Z,88.84
2023-11-24T02:28:22.787Z,88.75
2023-11-24T02:30:49.741Z,89.02
2023-11-24T02:33:16.574Z,88.89
2023-11-24T02:35:44.059Z,88.89
2023-11-24T02:38:10.983Z,89.07
2023-11-24T02:40:38.305Z,89.11
2023-11-24T02:43:05.342Z,89.31
2023-11-24T02:45:32.253Z,89.47
2023-11-24T02:47:59.133Z,89.29
2023-11-24T02:50:26.110Z,89.28
2023-11-24T02:52:52.798Z,89.30
2023-11-24T02:55:19.745Z,89.36
2023-11-24T02:57:46.577Z,89.49
2023-11-24T03:00:15.172Z,89.17
2023-11-24T03:02:42.552Z,89.13
2023-11-24T03:05:10.200Z,89.26
2023-11-24T03:07:37.359Z,89.30
2023-11-24T03:10:05.077Z,89.31
2023-11-24T03:12:31.841Z,89.25
2023-11-24T03:14:59.398Z,89.31
2023-11-24T03:17:26.163Z,89.00
2023-11-24T03:19:52.909Z,89.02
2023-11-24T03:22:19.997Z,88.69
2023-11-24T03:24:46.703Z,88.37
2023-11-24T03:27:13.478Z,88.28
2023-11-24T03:29:41.630Z,88.36
2023-11-24T03:32:09.153Z,88.26
2023-11-24T03:34:37.498Z,88.02
2023-11-24T03:37:04.461Z,87.86
2023-11-24T03:39:31.317Z,87.60
2023-11-24T03:41:58.355Z,87.45
2023-11-24T03:44:25.079Z,87.53
2023-11-24T03:46:52.021Z,87.21
2023-11-24T03:49:18.745Z,87.09
2023-11-24T03:51:45.560Z,87.08
2023-11-24T03:54:12.330Z,87.09
2023-11-24T03:56:39.258Z,87.02
2023-11-24T03:59:06.774Z,86.67
2023-11-24T04:01:33.756Z,86.71
2023-11-24T04:04:01.521Z,86.44
2023-11-24T04:06:28.457Z,86.14
2023-11-24T04:08:55.432Z,86.07
2023-11-24T04:11:22.316Z,86.07
2023-11-24T04:13:49.198Z,86.09
2023-11-24T04:16:16.330Z,85.68
2023-11-24T04:18:43.934Z,85.46
2023-11-24T04:21:10.943Z,85.47
2023-11-24T04:23:37.719Z,85.28
2023-11-24T04:26:04.910Z,85.16
2023-11-24T04:28:32.043Z,85.21
2023-11-24T04:30:59.769Z,85.14
2023-11-24T04:33:26.746Z,84.91
2023-11-24T04:35:56.551Z,84.68
2023-11-24T04:38:23.451Z,84.56
2023-11-24T04:40:50.243Z,84.64
2023-11-24T04:43:16.932Z,84.58
2023-11-24T04:45:44.318Z,84.31
2023-11-24T04:48:13.689Z,84.25
2023-11-24T04:50:40.578Z,84.25
2023-11-24T04:53:07.306Z,84.26
2023-11-24T04:55:34.332Z,84.48
2023-11-24T04:58:01.018Z,84.23
2023-11-24T05:00:28.017Z,84.11
2023-11-24T05:02:54.898Z,84.15
2023-11-24T05:05:21.868Z,84.20
2023-11-24T05:07:48.743Z,84.41
2023-11-24T05:10:16.041Z,84.46
2023-11-24T05:12:43.215Z,84.47
2023-11-24T05:15:11.313Z,84.71
2023-11-24T05:17:39.687Z,84.65
2023-11-24T05:20:08.037Z,84.59
2023-11-24T05:22:34.781Z,84.54
2023-11-24T05:25:01.854Z,84.33
2023-11-24T05:27:28.818Z,84.27
2023-11-24T05:29:55.910Z,84.49
2023-11-24T05:32:22.981Z,84.55
2023-11-24T05:34:49.700Z,84.37
2023-11-24T05:37:16.483Z,84.50
2023-11-24T05:39:43.209Z,84.44
2023-11-24T05:42:10.226Z,84.74
2023-11-24T05:44:36.992Z,84.81
2023-11-24T05:47:06.110Z,85.18
2023-11-24T05:49:33.262Z,85.34
2023-11-24T05:52:00.100Z,85.42
2023-11-24T05:54:26.934Z,85.48
2023-11-24T05:56:53.632Z,85.75
2023-11-24T05:59:20.682Z,85.63
2023-11-24T06:01:49.046Z,85.52
2023-11-24T06:04:15.919Z,85.58
2023-11-24T06:06:42.785Z,85.49
2023-11-24T06:09:09.582Z,85.41
2023-11-24T06:11:36.272Z,85.51
2023-11-24T06:14:03.052Z,85.46
2023-11-24T06:16:29.811Z,85.16
2023-11-24T06:18:58.769Z,85.19
2023-11-24T06:21:27.060Z,85.10
2023-11-24T06:23:53.816Z,84.88
2023-11-24T06:26:20.581Z,84.62
2023-11-24T06:28:47.334Z,84.54
2023-11-24T06:31:17.326Z,84.28
2023-11-24T06:33:44.590Z,84.35
2023-11-24T06:36:12.519Z,84.15
2023-11-24T06:38:39.380Z,84.18
2023-11-24T06:41:09.330Z,84.34
2023-11-24T06:43:36.486Z,84.31
2023-11-24T06:46:04.353Z,84.16
2023-11-24T06:48:31.513Z,84.43
2023-11-24T06:50:58.336Z,84.39
2023-11-24T06:53:25.080Z,84.43
2023-11-24T06:55:51.806Z,84.17
2023-11-24T06:58:18.762Z,84.29
2023-11-24T07:00:45.558Z,84.36
2023-11-24T07:03:12.540Z,84.27
2023-11-24T07:05:39.302Z,84.37
2023-11-24T07:08:06.755Z,84.31
2023-11-24T07:10:33.738Z,83.83
2023-11-24T07:13:01.789Z,83.94
2023-11-24T07:15:28.843Z,83.83
2023-11-24T07:17:55.769Z,83.37
2023-11-24T07:20:23.143Z,83.33
2023-11-24T07:22:50.186Z,83.21
2023-11-24T07:25:17.338Z,82.81
2023-11-24T07:27:44.717Z,82.76
2023-11-24T07:30:13.633Z,82.80
2023-11-24T07:32:40.805Z,82.66
2023-11-24T07:35:10.170Z,82.37
2023-11-24T07:37:37.042Z,82.11
2023-11-24T07:40:09.116Z,82.05
2023-11-24T07:42:37.642Z,81.63
2023-11-24T07:45:05.171Z,81.31
2023-11-24T07:47:32.184Z,80.81
2023-11-24T07:49:59.087Z,80.78
2023-11-24T07:52:27.456Z,80.82
2023-11-24T07:54:54.753Z,80.97
2023-11-24T07:57:21.966Z,80.90
2023-11-24T07:59:48.740Z,80.70
2023-11-24T08:02:15.623Z,80.16
2023-11-24T08:04:42.523Z,80.39
2023-11-24T08:07:10.551Z,80.45
2023-11-24T08:09:38.116Z,80.14
2023-11-24T08:12:12.331Z,79.96
2023-11-24T08:14:40.660Z,80.16
2023-11-24T08:17:07.912Z,80.33
2023-11-24T08:19:34.619Z,80.17
2023-11-24T08:22:01.509Z,79.71
2023-11-24T08:24:28.466Z,80.01
2023-11-24T08:26:55.211Z,79.97
2023-11-24T08:29:22.789Z,79.71
2023-11-24T08:31:51.079Z,79.70
2023-11-24T08:34:19.188Z,79.86
2023-11-24T08:36:47.202Z,79.66
2023-11-24T08:39:14.977Z,79.26
2023-11-24T08:41:44.288Z,78.73
2023-11-24T08:44:11.246Z,78.43
2023-11-24T08:46:38.248Z,78.83
2023-11-24T08:49:06.960Z,78.63
2023-11-24T08:51:33.762Z,78.89
2023-11-24T08:54:00.766Z,78.46
2023-11-24T08:56:29.508Z,77.86
2023-11-24T08:58:56.365Z,77.20
2023-11-24T09:01:24.393Z,76.08
2023-11-24T09:03:51.780Z,75.62
2023-11-24T09:06:26.219Z,75.65
2023-11-24T09:08:52.962Z,75.61
2023-11-24T09:11:19.704Z,75.40
2023-11-24T09:13:49.469Z,74.47
2023-11-24T09:16:18.607Z,73.40
2023-11-24T09:18:47.059Z,72.40
2023-11-24T09:21:13.910Z,72.64
2023-11-24T09:23:41.079Z,72.76
2023-11-24T09:26:12.048Z,72.71
2023-11-24T09:28:38.976Z,72.59
2023-11-24T09:31:10.309Z,72.30
2023-11-24T09:33:37.990Z,72.24
2023-11-24T09:36:05.699Z,71.76
2023-11-24T09:38:35.296Z,71.69
2023-11-24T09:41:09.609Z,71.54
2023-11-24T09:43:37.178Z,71.45
2023-11-24T09:46:04.086Z,72.08
2023-11-24T09:48:33.265Z,72.19
2023-11-24T09:51:03.481Z,72.75
2023-11-24T09:53:35.487Z,73.09
2023-11-24T09:56:04.063Z,73.25
2023-11-24T09:58:31.476Z,73.36
2023-11-24T10:01:06.836Z,73.94
2023-11-24T10:03:35.455Z,72.96
2023-11-24T10:06:02.851Z,72.42
2023-11-24T10:08:29.634Z,72.37
2023-11-24T10:11:10.734Z,71.53
2023-11-24T10:13:38.403Z,71.31
2023-11-24T10:16:07.228Z,71.56
2023-11-24T10:18:33.971Z,71.11
2023-11-24T10:21:02.055Z,71.15
2023-11-24T10:23:32.087Z,71.06
2023-11-24T10:26:00.448Z,71.25
2023-11-24T10:28:27.981Z,71.77
2023-11-24T10:30:56.798Z,71.66
2023-11-24T10:33:35.128Z,71.75
2023-11-24T10:36:03.405Z,71.47
2023-11-24T10:38:33.541Z,71.57
2023-11-24T10:41:04.587Z,71.50
2023-11-24T10:43:35.241Z,71.91
2023-11-24T10:46:03.546Z,72.24
2023-11-24T10:48:55.194Z,71.57
2023-11-24T10:51:35.834Z,71.05
2023-11-24T10:54:06.093Z,71.27
2023-11-24T10:56:37.486Z,69.41
2023-11-24T10:59:09.785Z,68.86
2023-11-24T11:01:36.954Z,67.92
2023-11-24T11:04:05.739Z,67.93
2023-11-24T11:06:42.645Z,68.65
2023-11-24T11:09:20.927Z,68.29
2023-11-24T11:12:32.528Z,68.32
2023-11-24T11:14:59.485Z,67.78
2023-11-24T11:17:27.864Z,67.91
2023-11-24T11:20:02.020Z,66.30
2023-11-24T11:22:38.098Z,66.60
2023-11-24T11:25:40.181Z,66.89
2023-11-24T11:28:47.731Z,67.05
2023-11-24T11:31:29.262Z,66.75
2023-11-24T11:33:56.217Z,66.60
2023-11-24T11:36:26.874Z,66.47
2023-11-24T11:38:57.165Z,65.97
2023-11-24T11:41:42.628Z,66.61
2023-11-24T11:44:26.054Z,67.18
2023-11-24T11:47:25.534Z,66.40
2023-11-24T11:49:55.604Z,66.38
2023-11-24T11:52:25.555Z,66.63
2023-11-24T11:54:53.944Z,66.86
2023-11-24T11:57:22.971Z,66.66
2023-11-24T11:59:51.100Z,66.93
2023-11-24T12:02:21.489Z,67.03
2023-11-24T12:04:50.456Z,67.13
2023-11-24T12:07:20.502Z,66.13
2023-11-24T12:09:48.764Z,66.46
2023-11-24T12:12:15.784Z,66.40
2023-11-24T12:14:44.360Z,66.23
2023-11-24T12:17:13.481Z,66.34
2023-11-24T12:19:41.950Z,66.58
2023-11-24T12:22:11.218Z,66.06
2023-11-24T12:24:41.340Z,65.94
2023-11-24T12:27:09.819Z,66.18
2023-11-24T12:29:39.045Z,65.76
2023-11-24T12:32:11.299Z,66.16
2023-11-24T12:34:42.843Z,66.07
2023-11-24T12:37:10.814Z,65.82
2023-11-24T12:39:37.989Z,66.26
2023-11-24T12:42:08.153Z,66.64
2023-11-24T12:44:35.670Z,66.71
2023-11-24T12:47:14.918Z,66.97
2023-11-24T12:50:03.221Z,67.69
2023-11-24T12:52:31.730Z,68.23
2023-11-24T12:54:58.844Z,68.62
2023-11-24T12:57:26.563Z,68.52
2023-11-24T12:59:53.494Z,68.25
2023-11-24T13:02:21.658Z,67.18
2023-11-24T13:04:49.487Z,67.33
2023-11-24T13:07:18.220Z,67.05
2023-11-24T13:09:45.743Z,66.67
2023-11-24T13:12:18.410Z,66.43
2023-11-24T13:14:46.210Z,66.56
2023-11-24T13:17:13.307Z,66.89
2023-11-24T13:19:40.270Z,67.29
2023-11-24T13:22:10.695Z,67.69
2023-11-24T13:24:37.975Z,67.69
2023-11-24T13:27:05.224Z,68.12
2023-11-24T13:29:32.092Z,68.47
2023-11-24T13:31:59.740Z,68.72
2023-11-24T13:34:26.904Z,68.69
2023-11-24T13:36:56.173Z,69.23
2023-11-24T13:39:24.769Z,69.94
2023-11-24T13:41:52.949Z,70.43
2023-11-24T13:44:21.844Z,71.10
2023-11-24T13:46:49.330Z,71.38
2023-11-24T13:49:18.136Z,71.63
2023-11-24T13:51:45.546Z,71.67
2023-11-24T13:54:13.342Z,71.92
2023-11-24T13:56:42.207Z,71.98
2023-11-24T13:59:13.735Z,72.10
2023-11-24T14:01:41.415Z,72.12
2023-11-24T14:04:12.363Z,71.55
2023-11-24T14:06:39.702Z,71.72
2023-11-24T14:09:12.586Z,71.46
2023-11-24T14:11:39.586Z,71.56
2023-11-24T14:14:07.538Z,71.54
2023-11-24T14:16:34.358Z,71.67
2023-11-24T14:19:02.500Z,71.67
2023-11-24T14:21:29.419Z,71.73
2023-11-24T14:23:57.360Z,71.84
2023-11-24T14:26:26.679Z,71.46
2023-11-24T14:28:53.503Z,71.01
2023-11-24T14:31:20.435Z,71.14
2023-11-24T14:33:49.069Z,71.32
2023-11-24T14:36:15.968Z,71.35
2023-11-24T14:38:43.139Z,71.60
2023-11-24T14:41:10.196Z,71.86
2023-11-24T14:43:38.759Z,72.13
2023-11-24T14:46:05.773Z,72.34
2023-11-24T14:48:32.667Z,72.56
2023-11-24T14:50:59.665Z,72.95
2023-11-24T14:53:26.570Z,73.04
2023-11-24T14:55:53.407Z,73.45
2023-11-24T14:58:20.658Z,73.63
2023-11-24T15:00:47.571Z,73.81
2023-11-24T15:03:16.770Z,74.15
2023-11-24T15:05:53.341Z,74.24
2023-11-24T15:08:18.997Z,74.51
2023-11-24T15:10:47.615Z,74.90
2023-11-24T15:13:22.676Z,75.41
2023-11-24T15:15:50.550Z,75.86
2023-11-24T15:18:21.070Z,76.35
2023-11-24T15:20:49.669Z,76.62
2023-11-24T15:23:16.660Z,77.01
2023-11-24T15:25:51.736Z,77.26
2023-11-24T15:28:23.045Z,77.59
2023-11-24T15:30:50.243Z,77.69
2023-11-24T15:33:19.346Z,77.81
2023-11-24T15:35:48.549Z,77.77
2023-11-24T15:38:21.209Z,77.99
2023-11-24T15:40:52.054Z,77.93
2023-11-24T15:43:20.457Z,77.87
2023-11-24T15:45:51.912Z,77.91
2023-11-24T15:48:18.891Z,78.10
2023-11-24T15:50:46.373Z,78.08
2023-11-24T15:53:14.744Z,78.19
2023-11-24T15:55:46.051Z,78.25
2023-11-24T15:58:14.786Z,78.34
2023-11-24T16:00:44.166Z,78.59
2023-11-24T16:03:15.463Z,78.74
2023-11-24T16:05:50.109Z,78.83
2023-11-24T16:08:17.905Z,78.98
2023-11-24T16:10:47.842Z,79.19
2023-11-24T16:13:15.067Z,79.24
2023-11-24T16:15:42.564Z,79.55
2023-11-24T16:18:10.794Z,79.42
2023-11-24T16:20:38.513Z,79.58
2023-11-24T16:23:06.961Z,79.60
2023-11-24T16:25:36.854Z,79.58
2023-11-24T16:28:08.227Z,79.56
2023-11-24T16:30:35.014Z,79.33
2023-11-24T16:33:01.953Z,79.37
2023-11-24T16:35:29.034Z,79.21
2023-11-24T16:37:55.988Z,79.36
2023-11-24T16:40:22.967Z,79.27
2023-11-24T16:42:49.905Z,79.31
2023-11-24T16:45:16.752Z,79.44
2023-11-24T16:47:44.568Z,79.33
2023-11-24T16:50:12.709Z,79.45
2023-11-24T16:52:46.428Z,79.24
2023-11-24T16:55:14.428Z,79.26
2023-11-24T16:57:41.201Z,79.46
2023-11-24T17:00:10.514Z,79.55
2023-11-24T17:02:37.624Z,79.76
2023-11-24T17:05:04.915Z,80.12
2023-11-24T17:07:32.197Z,80.04
2023-11-24T17:09:59.116Z,80.14
2023-11-24T17:12:27.031Z,80.15
2023-11-24T17:14:55.060Z,80.47
2023-11-24T17:17:22.591Z,80.68
2023-11-24T17:19:49.699Z,80.85
2023-11-24T17:22:16.823Z,80.84
2023-11-24T17:24:43.624Z,81.08
2023-11-24T17:27:10.574Z,81.36
2023-11-24T17:29:37.437Z,81.48
2023-11-24T17:32:06.224Z,81.29
2023-11-24T17:34:33.111Z,81.54
2023-11-24T17:36:59.938Z,81.72
2023-11-24T17:39:28.297Z,81.85
2023-11-24T17:41:55.404Z,82.17
2023-11-24T17:44:22.136Z,82.41
2023-11-24T17:46:50.119Z,82.42
2023-11-24T17:49:16.955Z,82.27
2023-11-24T17:51:43.849Z,82.48
2023-11-24T17:54:11.683Z,82.61
2023-11-24T17:56:38.502Z,82.95
2023-11-24T17:59:06.793Z,83.02
2023-11-24T18:01:35.431Z,83.22
2023-11-24T18:04:02.500Z,83.51
2023-11-24T18:06:30.639Z,83.77
2023-11-24T18:08:58.737Z,83.86
2023-11-24T18:11:26.863Z,83.96
2023-11-24T18:13:53.690Z,84.32
2023-11-24T18:16:21.250Z,83.98
2023-11-24T18:18:48.086Z,83.72
2023-11-24T18:21:15.277Z,83.53
2023-11-24T18:23:42.078Z,83.21
2023-11-24T18:26:11.685Z,83.04
2023-11-24T18:28:38.469Z,83.01
2023-11-24T18:31:05.725Z,82.89
2023-11-24T18:33:32.844Z,82.93
2023-11-24T18:35:59.609Z,82.92
2023-11-24T18:38:26.730Z,82.80
2023-11-24T18:40:53.934Z,82.77
2023-11-24T18:43:30.584Z,82.70
2023-11-24T18:46:04.073Z,82.63
2023-11-24T18:48:31.567Z,82.34
2023-11-24T18:50:58.410Z,82.38
2023-11-24T18:53:27.608Z,82.16
2023-11-24T18:55:54.448Z,81.88
2023-11-24T18:58:21.326Z,81.87
2023-11-24T19:00:48.475Z,81.77
2023-11-24T19:03:15.344Z,81.87
2023-11-24T19:05:42.541Z,81.79
2023-11-24T19:08:09.795Z,81.70
2023-11-24T19:10:37.493Z,81.59
2023-11-24T19:13:04.356Z,81.54
2023-11-24T19:15:31.212Z,81.39
2023-11-24T19:17:58.151Z,81.38
2023-11-24T19:20:24.919Z,81.38
2023-11-24T19:22:51.963Z,81.26
2023-11-24T19:25:19.791Z,81.04
2023-11-24T19:27:46.674Z,81.05
2023-11-24T19:30:14.844Z,81.11
2023-11-24T19:32:41.706Z,81.05
2023-11-24T19:35:10.037Z,81.01
2023-11-24T19:37:36.939Z,80.80
2023-11-24T19:40:07.400Z,80.69
2023-11-24T19:42:34.527Z,80.47
2023-11-24T19:45:01.403Z,80.57
2023-11-24T19:47:28.690Z,80.79
2023-11-24T19:49:55.789Z,80.58
2023-11-24T19:52:22.581Z,80.81
2023-11-24T19:54:49.392Z,80.72
2023-11-24T19:57:17.410Z,80.84
2023-11-24T19:59:44.191Z,81.20
2023-11-24T20:02:13.305Z,82.24
2023-11-24T20:04:41.187Z,82.22
2023-11-24T20:07:09.031Z,82.16
2023-11-24T20:09:37.809Z,82.03
2023-11-24T20:12:04.925Z,82.27
2023-11-24T20:14:31.936Z,82.22
2023-11-24T20:16:58.755Z,81.67
2023-11-24T20:19:25.753Z,81.53
2023-11-24T20:21:53.199Z,81.27
2023-11-24T20:24:19.936Z,81.35
2023-11-24T20:26:46.950Z,81.09
2023-11-24T20:29:13.771Z,81.23
2023-11-24T20:31:41.911Z,81.27
2023-11-24T20:34:09.180Z,81.23
2023-11-24T20:36:36.339Z,81.39
2023-11-24T20:39:03.822Z,81.38
2023-11-24T20:41:31.961Z,81.29
2023-11-24T20:43:58.724Z,81.21
2023-11-24T20:46:25.824Z,81.18
2023-11-24T20:48:52.688Z,81.43
2023-11-24T20:51:19.567Z,81.56
2023-11-24T20:53:46.425Z,81.62
2023-11-24T20:56:13.429Z,81.53
2023-11-24T20:58:40.301Z,81.55
2023-11-24T21:01:07.400Z,81.68
2023-11-24T21:03:34.755Z,81.67
2023-11-24T21:06:01.702Z,81.67
2023-11-24T21:08:29.147Z,81.52
2023-11-24T21:10:55.979Z,81.52
2023-11-24T21:13:23.776Z,81.50
2023-11-24T21:15:50.679Z,81.40
2023-11-24T21:18:17.764Z,81.53
2023-11-24T21:20:45.374Z,81.35
2023-11-24T21:23:13.185Z,81.55
2023-11-24T21:25:41.395Z,81.77
2023-11-24T21:28:09.143Z,81.81
2023-11-24T21:30:35.913Z,82.01
2023-11-24T21:33:03.033Z,82.25
2023-11-24T21:35:32.159Z,82.11
2023-11-24T21:37:59.044Z,82.21
2023-11-24T21:40:26.448Z,82.15
2023-11-24T21:42:53.770Z,82.09
2023-11-24T21:45:20.793Z,82.13
2023-11-24T21:47:48.076Z,82.02
2023-11-24T21:50:15.589Z,82.11
2023-11-24T21:52:42.729Z,81.96
2023-11-24T21:55:11.092Z,81.90
2023-11-24T21:57:37.922Z,81.98
2023-11-24T22:00:06.548Z,81.98
2023-11-24T22:02:38.285Z,82.01
2023-11-24T22:05:10.614Z,82.15
2023-11-24T22:07:38.846Z,82.25
2023-11-24T22:10:07.012Z,82.31
2023-11-24T22:12:37.372Z,82.48
2023-11-24T22:15:06.001Z,82.71
2023-11-24T22:17:33.965Z,82.58
2023-11-24T22:20:01.690Z,82.49
2023-11-24T22:22:28.819Z,82.60
2023-11-24T22:24:55.731Z,82.75
2023-11-24T22:27:22.707Z,82.39
2023-11-24T22:29:58.013Z,82.46
2023-11-24T22:32:30.974Z,82.79
2023-11-24T22:34:57.780Z,83.04
2023-11-24T22:37:24.843Z,83.10
2023-11-24T22:39:51.562Z,83.32
2023-11-24T22:42:18.632Z,83.54
2023-11-24T22:44:46.883Z,83.77
2023-11-24T22:47:15.953Z,83.77
2023-11-24T22:49:42.932Z,83.91
2023-11-24T22:52:10.203Z,83.93
2023-11-24T22:54:37.156Z,84.09
2023-11-24T22:57:03.928Z,84.03
2023-11-24T22:59:30.719Z,84.05
2023-11-24T23:01:58.053Z,84.01
2023-11-24T23:04:25.746Z,84.09
2023-11-24T23:06:52.526Z,84.11
2023-11-24T23:09:21.266Z,84.30
2023-11-24T23:11:48.088Z,84.47
2023-11-24T23:14:15.389Z,84.47
2023-11-24T23:16:42.613Z,84.56
2023-11-24T23:19:10.224Z,84.63
2023-11-24T23:21:37.711Z,84.74
2023-11-24T23:24:05.221Z,84.95
2023-11-24T23:26:31.936Z,84.99
2023-11-24T23:28:58.666Z,84.93
2023-11-24T23:31:28.659Z,85.02
2023-11-24T23:33:56.083Z,85.12
2023-11-24T23:36:24.173Z,85.03
2023-11-24T23:38:51.508Z,85.05
2023-11-24T23:41:18.619Z,85.07
2023-11-24T23:43:45.427Z,85.14
2023-11-24T23:46:12.404Z,85.23
2023-11-24T23:48:39.348Z,85.24
2023-11-24T23:51:07.512Z,85.37
2023-11-24T23:53:34.561Z,85.40
2023-11-24T23:56:02.015Z,85.39
2023-11-24T23:58:29.577Z,85.16
